Darlington, South Carolina
Current Conditions -  °F | °C
As of 8:15 AM on Tuesday 21 Oct 2014 (Local Time) from KUDG Reporting Station
Clear Clear  
Wind Chill: 52°   Ceiling: Unl
Heat Index: 52°   Visibility: 10mi
Dew Point: 46°   Wind: 3mph
Humidity: 82%   Direction: 240°WSW
Pressure: 29.97"   Gusts: NA
Location:  34.3°N, 79.87°W
Report Text: KUDG 211215Z AUTO 24003KT 10SM CLR 11/08 A2997 RMK AO1
Loading
Personal Weather Stations






























Interactive Weather Map New forecast layout! Learn more

10-Day Weather Forecast

Advertisements
Track Severe Weather on mobile